createdAt,value
2023-02-12T10:43:52.964Z,9.03
2023-02-12T10:46:23.772Z,8.80
2023-02-12T10:48:58.874Z,8.10
2023-02-12T10:52:09.556Z,7.90
2023-02-12T10:54:51.456Z,7.10
2023-02-12T10:57:29.771Z,6.77
2023-02-12T11:00:36.654Z,6.20
2023-02-12T11:03:14.159Z,7.50
2023-02-12T11:05:45.885Z,7.13
2023-02-12T11:08:56.619Z,7.22
2023-02-12T11:11:50.307Z,7.30
2023-02-12T11:14:21.395Z,7.10
2023-02-12T11:17:01.595Z,7.38
2023-02-12T11:19:49.571Z,7.57
2023-02-12T11:23:14.862Z,7.05
2023-02-12T11:26:08.191Z,6.38
2023-02-12T11:29:24.568Z,6.30
2023-02-12T11:32:24.097Z,6.47
2023-02-12T11:35:33.688Z,6.68
2023-02-12T11:38:04.364Z,6.70
2023-02-12T11:40:37.914Z,6.10
2023-02-12T11:46:33.854Z,6.07
2023-02-12T11:49:38.512Z,5.65
2023-02-12T11:52:22.250Z,6.53
2023-02-12T11:54:56.566Z,5.60
2023-02-12T11:57:50.539Z,6.10
2023-02-12T12:00:42.933Z,6.35
2023-02-12T12:03:41.139Z,6.70
2023-02-12T12:06:47.646Z,6.65
2023-02-12T12:10:16.221Z,6.82
2023-02-12T12:12:53.030Z,6.68
2023-02-12T12:15:51.487Z,6.00
2023-02-12T12:19:04.921Z,5.50
2023-02-12T12:22:10.034Z,5.63
2023-02-12T12:25:01.665Z,5.53
2023-02-12T12:28:16.743Z,5.50
2023-02-12T12:31:06.741Z,6.18
2023-02-12T12:34:36.690Z,5.75
2023-02-12T12:37:18.321Z,6.40
2023-02-12T12:40:34.425Z,5.97
2023-02-12T12:43:10.871Z,5.97
2023-02-12T12:47:03.001Z,6.55
2023-02-12T12:49:46.858Z,6.03
2023-02-12T12:53:17.891Z,5.35
2023-02-12T12:56:48.571Z,6.13
2023-02-12T12:59:48.297Z,5.97
2023-02-12T13:03:14.218Z,5.38
2023-02-12T13:06:30.602Z,5.90
2023-02-12T13:09:48.177Z,6.03
2023-02-12T13:12:44.721Z,5.50
2023-02-12T13:16:06.862Z,5.55
2023-02-12T13:19:04.368Z,5.75
2023-02-12T13:21:58.913Z,5.07
2023-02-12T13:24:57.219Z,5.53
2023-02-12T13:27:43.792Z,4.88
2023-02-12T13:30:16.955Z,5.05
2023-02-12T13:33:22.896Z,4.97
2023-02-12T13:36:38.438Z,4.70
2023-02-12T13:39:34.393Z,4.75
2023-02-12T13:42:08.328Z,4.18
2023-02-12T13:45:31.652Z,4.68
2023-02-12T13:48:29.342Z,4.50
2023-02-12T13:51:24.679Z,3.95
2023-02-12T13:54:21.135Z,4.60
2023-02-12T13:57:17.820Z,4.78
2023-02-12T14:00:56.078Z,4.72
2023-02-12T14:03:47.356Z,4.72
2023-02-12T14:06:24.945Z,3.85
2023-02-12T14:09:28.006Z,4.57
2023-02-12T14:11:59.769Z,4.40
2023-02-12T14:14:42.954Z,4.28
2023-02-12T14:18:06.973Z,4.72
2023-02-12T14:20:50.479Z,3.92
2023-02-12T14:23:37.422Z,4.03
2023-02-12T14:26:36.904Z,4.00
2023-02-12T14:34:16.634Z,2.50
2023-02-12T14:37:51.558Z,2.38
2023-02-12T14:42:46.090Z,2.22
2023-02-12T14:45:48.749Z,2.78
2023-02-12T14:49:16.609Z,2.95
2023-02-12T14:52:19.155Z,2.90
2023-02-12T14:55:30.003Z,3.90
2023-02-12T14:58:36.132Z,4.22
2023-02-12T15:06:17.319Z,4.43
2023-02-12T15:09:27.554Z,4.22
2023-02-12T15:12:43.052Z,3.08
2023-02-12T15:19:12.809Z,3.50
2023-02-12T15:21:48.948Z,2.80
2023-02-12T15:24:44.556Z,2.70
2023-02-12T15:28:48.722Z,2.65
2023-02-12T15:32:00.450Z,2.77
2023-02-12T16:05:05.463Z,3.45
2023-02-12T16:10:36.079Z,3.20
2023-02-12T16:13:06.133Z,3.43
2023-02-12T16:15:54.919Z,3.33
2023-02-12T16:18:35.906Z,2.80
2023-02-12T16:21:26.181Z,2.20
2023-02-12T16:23:54.562Z,2.10
2023-02-12T16:26:28.555Z,2.30
2023-02-12T16:28:59.526Z,2.50
2023-02-12T16:31:35.212Z,2.60
2023-02-12T16:34:07.253Z,3.90
2023-02-12T16:36:48.870Z,2.67
2023-02-12T16:39:48.393Z,2.70
2023-02-12T16:42:19.172Z,2.30
2023-02-12T16:44:51.745Z,2.63
2023-02-12T16:47:23.157Z,2.97
2023-02-12T16:50:01.017Z,3.17
2023-02-12T16:52:41.263Z,3.57
2023-02-12T16:55:16.984Z,3.00
2023-02-12T16:57:45.180Z,3.40
2023-02-12T17:00:17.505Z,3.40
2023-02-12T17:02:47.100Z,4.00
2023-02-12T17:05:27.193Z,3.60
2023-02-12T17:07:58.885Z,3.60
2023-02-12T17:10:26.659Z,3.80
2023-02-12T17:13:00.983Z,4.37
2023-02-12T17:15:56.171Z,4.40
2023-02-12T17:18:51.072Z,3.95
2023-02-12T17:21:25.723Z,4.10
2023-02-12T17:24:17.383Z,3.88
2023-02-12T17:26:45.338Z,3.42
2023-02-12T17:29:19.339Z,4.55
2023-02-12T17:31:56.178Z,4.35
2023-02-12T17:34:30.198Z,5.13
2023-02-12T17:37:01.765Z,4.45
2023-02-12T17:39:33.636Z,4.30
2023-02-12T17:42:07.591Z,4.63
2023-02-12T17:44:35.316Z,4.60
2023-02-12T17:47:05.397Z,5.10
2023-02-12T17:49:42.801Z,6.17
2023-02-12T17:52:26.272Z,5.20
2023-02-12T17:54:55.907Z,5.53
2023-02-12T17:57:28.042Z,5.67
2023-02-12T17:59:58.945Z,4.87
2023-02-12T18:02:30.358Z,4.33
2023-02-12T18:04:58.196Z,4.07
2023-02-12T18:07:25.882Z,4.33
2023-02-12T18:10:01.126Z,5.40
2023-02-12T18:15:55.875Z,4.97
2023-02-12T18:18:41.419Z,5.43
2023-02-12T18:21:36.096Z,6.18
2023-02-12T18:24:17.012Z,6.38
2023-02-12T18:26:48.407Z,6.53
2023-02-12T18:30:24.336Z,6.47
2023-02-12T18:32:42.514Z,6.65
2023-02-12T18:35:21.061Z,6.68
2023-02-12T18:37:57.222Z,5.55
2023-02-12T18:40:33.171Z,6.05
2023-02-12T18:44:05.839Z,5.53
2023-02-12T18:47:01.157Z,4.68
2023-02-12T18:49:51.377Z,5.18
2023-02-12T18:52:25.641Z,7.38
2023-02-12T18:54:56.353Z,6.38
2023-02-12T18:57:27.090Z,6.53
2023-02-12T19:00:44.968Z,7.50
2023-02-12T19:04:13.092Z,8.20
2023-02-12T19:06:56.442Z,7.82
2023-02-12T19:09:29.009Z,8.40
2023-02-12T19:13:33.669Z,8.63
2023-02-12T19:19:12.866Z,9.60
2023-02-12T19:21:53.249Z,10.87
2023-02-12T19:24:21.449Z,9.77
2023-02-12T19:26:53.102Z,10.70
2023-02-12T19:29:29.018Z,11.40
2023-02-12T19:32:15.162Z,11.53
2023-02-12T19:34:52.665Z,12.07
2023-02-12T19:37:27.985Z,12.35
2023-02-12T19:40:08.244Z,12.63
2023-02-12T19:42:35.962Z,12.63
2023-02-12T19:45:03.953Z,13.35
2023-02-12T19:47:32.253Z,12.10
2023-02-12T19:50:02.262Z,12.70
2023-02-12T19:52:30.294Z,14.40
2023-02-12T19:55:00.807Z,14.27
2023-02-12T19:57:33.478Z,14.30
2023-02-12T20:00:02.886Z,14.23
2023-02-12T20:02:34.560Z,15.40
2023-02-12T20:05:07.186Z,13.97
2023-02-12T20:07:38.847Z,14.67
2023-02-12T20:10:11.409Z,15.50
2023-02-12T20:12:42.104Z,15.13
2023-02-12T20:15:31.551Z,14.83
2023-02-12T20:18:09.483Z,15.47
2023-02-12T20:20:47.739Z,15.60
2023-02-12T20:23:20.467Z,17.30
2023-02-12T20:25:48.506Z,19.63
2023-02-12T20:28:19.195Z,16.60
2023-02-12T20:30:47.888Z,28.40
2023-02-12T20:33:17.209Z,34.83
2023-02-12T20:35:58.280Z,27.80
2023-02-12T20:38:34.762Z,21.40
2023-02-12T20:41:23.881Z,20.33
2023-02-12T20:43:51.953Z,19.57
2023-02-12T20:46:25.566Z,18.77
2023-02-12T20:48:55.689Z,20.17
2023-02-12T20:51:33.702Z,19.07
2023-02-12T20:54:04.662Z,18.97
2023-02-12T20:56:45.320Z,19.27
2023-02-12T20:59:18.942Z,18.93
2023-02-12T21:01:54.984Z,19.97
2023-02-12T21:04:26.785Z,21.00
2023-02-12T21:06:57.505Z,20.30
2023-02-12T21:09:28.007Z,20.90
2023-02-12T21:11:58.601Z,22.83
2023-02-12T21:14:26.827Z,22.87
2023-02-12T21:16:56.537Z,22.53
2023-02-12T21:19:37.018Z,23.17
2023-02-12T21:22:05.154Z,22.27
2023-02-12T21:24:34.200Z,22.43
2023-02-12T21:27:04.932Z,23.57
2023-02-12T21:29:42.816Z,24.47
2023-02-12T21:32:17.425Z,22.67
2023-02-12T21:34:47.538Z,22.67
2023-02-12T21:37:27.054Z,23.00
2023-02-12T21:39:55.043Z,24.37
2023-02-12T21:42:25.344Z,22.63
2023-02-12T21:44:55.897Z,23.37
2023-02-12T21:47:23.845Z,22.77
2023-02-12T21:49:56.427Z,20.67
2023-02-12T21:52:24.413Z,21.87
2023-02-12T21:55:04.191Z,22.67
2023-02-12T21:57:33.805Z,22.30
2023-02-12T22:00:10.831Z,23.60
2023-02-12T22:02:41.212Z,22.30
2023-02-12T22:05:12.489Z,23.03
2023-02-12T22:07:58.943Z,22.67
2023-02-12T22:10:27.687Z,22.67
2023-02-12T22:13:02.889Z,23.17
2023-02-12T22:15:34.036Z,22.53
2023-02-12T22:18:06.706Z,21.90
2023-02-12T22:20:45.224Z,23.90
2023-02-12T22:23:18.094Z,22.40
2023-02-12T22:25:46.180Z,22.33
2023-02-12T22:28:17.013Z,21.10
2023-02-12T22:30:46.980Z,21.30
2023-02-12T22:33:21.709Z,23.97
2023-02-12T22:35:49.774Z,21.73
2023-02-12T22:38:17.634Z,20.77
2023-02-12T22:40:45.632Z,22.07
2023-02-12T22:43:18.302Z,22.83
2023-02-12T22:45:46.443Z,22.07
2023-02-12T22:48:16.875Z,22.77
2023-02-12T22:50:47.917Z,19.13
2023-02-12T22:53:18.258Z,18.67
2023-02-12T22:55:50.469Z,20.70
2023-02-12T22:58:25.869Z,19.73
2023-02-12T23:00:57.820Z,17.77
2023-02-12T23:03:30.362Z,17.43
2023-02-12T23:06:04.560Z,16.50
2023-02-12T23:08:41.512Z,16.13
2023-02-12T23:11:34.444Z,17.77
2023-02-12T23:14:21.881Z,16.53
2023-02-12T23:17:02.944Z,16.83
2023-02-12T23:19:38.838Z,16.20
2023-02-12T23:22:16.877Z,16.17
2023-02-12T23:24:44.677Z,15.67
2023-02-12T23:27:16.129Z,15.43
2023-02-12T23:29:44.168Z,15.83
2023-02-12T23:32:14.550Z,14.50
2023-02-12T23:34:44.890Z,14.57
2023-02-12T23:37:27.520Z,12.60
2023-02-12T23:40:00.618Z,13.40
2023-02-12T23:42:48.994Z,13.30
2023-02-12T23:45:37.234Z,13.30
2023-02-12T23:48:06.214Z,12.13
2023-02-12T23:50:59.354Z,13.00
2023-02-12T23:53:34.792Z,14.20
2023-02-12T23:56:13.914Z,12.20
2023-02-12T23:59:05.792Z,12.53
